createdAt,value
2023-01-30T00:02:05.638Z,28.00
2023-01-30T00:04:34.127Z,28.90
2023-01-30T00:07:02.629Z,27.10
2023-01-30T00:09:30.927Z,22.50
2023-01-30T00:11:59.300Z,32.20
2023-01-30T00:14:27.715Z,33.30
2023-01-30T00:16:55.998Z,31.40
2023-01-30T00:19:24.259Z,33.80
2023-01-30T00:21:52.602Z,30.00
2023-01-30T00:24:20.983Z,59.50
2023-01-30T00:26:49.377Z,53.80
2023-01-30T00:29:17.803Z,41.70
2023-01-30T00:31:46.310Z,32.10
2023-01-30T00:34:14.636Z,25.90
2023-01-30T00:36:43.008Z,24.30
2023-01-30T00:39:11.323Z,24.10
2023-01-30T00:41:58.229Z,24.80
2023-01-30T00:44:45.387Z,31.10
2023-01-30T00:47:13.710Z,32.60
2023-01-30T00:49:42.542Z,39.20
2023-01-30T00:52:10.831Z,39.10
2023-01-30T00:54:39.203Z,46.70
2023-01-30T00:57:07.572Z,51.50
2023-01-30T00:59:35.882Z,51.20
2023-01-30T01:02:04.317Z,63.80
2023-01-30T01:04:43.422Z,74.90
2023-01-30T01:07:14.477Z,76.70
2023-01-30T01:09:42.983Z,70.70
2023-01-30T01:12:11.367Z,76.00
2023-01-30T01:14:39.842Z,73.70
2023-01-30T01:17:08.315Z,66.80
2023-01-30T01:19:36.574Z,61.20
2023-01-30T01:22:04.835Z,62.50
2023-01-30T01:24:34.656Z,58.30
2023-01-30T01:27:02.966Z,57.60
2023-01-30T01:29:31.241Z,57.40
2023-01-30T01:31:59.702Z,56.50
2023-01-30T01:34:28.128Z,54.50
2023-01-30T01:36:56.458Z,53.60
2023-01-30T01:39:24.776Z,50.20
2023-01-30T01:41:53.022Z,53.20
2023-01-30T01:44:21.355Z,54.70
2023-01-30T01:46:57.978Z,52.40
2023-01-30T01:49:31.871Z,57.90
2023-01-30T01:52:00.329Z,51.60
2023-01-30T01:54:39.175Z,45.80
2023-01-30T01:57:14.119Z,36.70
2023-01-30T01:59:50.791Z,49.30
2023-01-30T02:02:20.165Z,54.50
2023-01-30T02:05:02.653Z,54.00
2023-01-30T02:07:45.318Z,51.00
2023-01-30T02:10:36.360Z,51.30
2023-01-30T02:13:04.740Z,39.50
2023-01-30T02:15:33.778Z,34.30
2023-01-30T02:18:03.257Z,35.00
2023-01-30T02:20:42.034Z,45.30
2023-01-30T02:23:24.540Z,45.20
2023-01-30T02:26:30.546Z,38.00
2023-01-30T02:29:37.462Z,38.40
2023-01-30T02:32:24.802Z,35.00
2023-01-30T02:35:11.276Z,33.70
2023-01-30T02:38:07.292Z,34.70
2023-01-30T02:40:47.907Z,31.00
2023-01-30T02:43:36.796Z,29.90
2023-01-30T02:46:16.142Z,28.20
2023-01-30T02:48:54.731Z,31.10
2023-01-30T02:51:36.464Z,29.50
2023-01-30T02:54:10.750Z,30.80
2023-01-30T02:56:50.011Z,29.70
2023-01-30T02:59:47.156Z,31.70
2023-01-30T03:03:07.087Z,30.80
2023-01-30T03:05:44.668Z,28.90
2023-01-30T03:08:25.005Z,27.60
2023-01-30T03:11:24.583Z,26.00
2023-01-30T03:14:03.163Z,26.10
2023-01-30T03:16:39.851Z,26.90
2023-01-30T03:19:13.475Z,25.40
2023-01-30T03:21:44.611Z,23.70
2023-01-30T03:24:14.902Z,22.30
2023-01-30T03:26:58.740Z,22.00
2023-01-30T03:29:27.420Z,23.20
2023-01-30T03:31:56.555Z,21.90
2023-01-30T03:34:25.061Z,24.00
2023-01-30T03:36:53.609Z,21.90
2023-01-30T03:39:25.138Z,23.40
2023-01-30T03:41:54.645Z,25.00
2023-01-30T03:44:23.297Z,24.50
2023-01-30T03:46:52.072Z,27.60
2023-01-30T03:49:21.637Z,26.50
2023-01-30T03:51:50.091Z,26.50
2023-01-30T03:54:18.517Z,26.10
2023-01-30T03:56:46.893Z,28.80
2023-01-30T03:59:15.280Z,25.10
2023-01-30T04:04:18.821Z,26.30
2023-01-30T04:06:47.214Z,25.90
2023-01-30T04:09:15.676Z,25.50
2023-01-30T04:11:49.343Z,24.80
2023-01-30T04:14:17.867Z,24.50
2023-01-30T04:17:05.950Z,25.60
2023-01-30T04:19:37.135Z,24.60
2023-01-30T04:22:05.794Z,26.40
2023-01-30T04:24:34.250Z,25.50
2023-01-30T04:27:02.548Z,24.70
2023-01-30T04:29:33.752Z,25.80
2023-01-30T04:32:03.150Z,22.90
2023-01-30T04:34:35.446Z,24.10
2023-01-30T04:37:03.836Z,20.80
2023-01-30T04:39:32.653Z,22.80
2023-01-30T04:42:01.017Z,21.10
2023-01-30T04:44:30.723Z,22.40
2023-01-30T04:47:07.675Z,22.50
2023-01-30T04:49:36.538Z,22.80
2023-01-30T04:52:05.443Z,23.60
2023-01-30T04:54:33.982Z,23.50
2023-01-30T04:57:03.110Z,23.60
2023-01-30T04:59:31.527Z,23.70
2023-01-30T05:02:00.467Z,24.00
2023-01-30T05:04:28.916Z,25.90
2023-01-30T05:06:57.263Z,23.00
2023-01-30T05:09:25.767Z,23.80
2023-01-30T05:11:54.078Z,22.70
2023-01-30T05:14:22.446Z,23.80
2023-01-30T05:16:51.042Z,24.30
2023-01-30T05:19:19.367Z,23.10
2023-01-30T05:21:47.699Z,25.20
2023-01-30T05:24:15.996Z,24.50
2023-01-30T05:26:44.383Z,26.50
2023-01-30T05:29:12.833Z,25.30
2023-01-30T05:31:41.226Z,23.50
2023-01-30T05:34:12.551Z,26.00
2023-01-30T05:36:41.003Z,24.90
2023-01-30T05:39:09.401Z,24.30
2023-01-30T05:41:37.843Z,24.90
2023-01-30T05:44:06.594Z,27.00
2023-01-30T05:46:35.027Z,28.80
2023-01-30T05:49:04.381Z,29.40
2023-01-30T05:51:33.274Z,28.20
2023-01-30T05:54:01.715Z,24.70
2023-01-30T05:56:33.348Z,23.90
2023-01-30T05:59:03.039Z,25.20
2023-01-30T06:01:31.627Z,22.30
2023-01-30T06:04:00.201Z,23.40
2023-01-30T06:06:28.798Z,25.20
2023-01-30T06:08:57.491Z,26.40
2023-01-30T06:11:26.440Z,25.20
2023-01-30T06:13:54.975Z,25.50
2023-01-30T06:16:23.332Z,25.00
2023-01-30T06:18:51.654Z,26.40
2023-01-30T06:21:20.052Z,27.00
2023-01-30T06:23:48.363Z,28.10
2023-01-30T06:26:16.748Z,35.90
2023-01-30T06:28:45.378Z,93.40
2023-01-30T06:31:13.821Z,86.20
2023-01-30T06:33:44.050Z,74.80
2023-01-30T06:36:12.372Z,48.30
2023-01-30T06:38:40.666Z,32.10
2023-01-30T06:41:09.051Z,28.80
2023-01-30T06:43:37.447Z,28.20
2023-01-30T06:46:05.924Z,27.20
2023-01-30T06:48:34.249Z,22.10
2023-01-30T06:51:02.921Z,19.50
2023-01-30T06:53:32.025Z,15.60
2023-01-30T06:56:01.866Z,16.40
2023-01-30T06:58:30.623Z,15.80
2023-01-30T07:00:58.965Z,17.20
2023-01-30T07:03:27.319Z,15.70
2023-01-30T07:05:55.705Z,13.00
2023-01-30T07:08:24.477Z,12.60
2023-01-30T07:10:53.011Z,19.80
2023-01-30T07:13:21.362Z,14.90
2023-01-30T07:15:49.694Z,15.90
2023-01-30T07:18:18.243Z,21.60
2023-01-30T07:20:48.715Z,39.10
2023-01-30T07:23:18.024Z,22.00
2023-01-30T07:25:46.597Z,17.30
2023-01-30T07:28:15.256Z,26.70
2023-01-30T07:30:44.000Z,31.90
2023-01-30T07:33:12.618Z,25.80
2023-01-30T07:35:41.143Z,22.40
2023-01-30T07:38:09.551Z,17.70
2023-01-30T07:40:38.097Z,16.10
2023-01-30T07:43:10.020Z,13.70
2023-01-30T07:45:41.553Z,16.20
2023-01-30T07:48:12.391Z,21.50
2023-01-30T07:50:41.495Z,17.00
2023-01-30T07:53:13.042Z,19.40
2023-01-30T07:55:42.486Z,16.10
2023-01-30T07:58:14.853Z,16.30
2023-01-30T08:00:44.224Z,17.00
2023-01-30T08:03:17.324Z,14.70
2023-01-30T08:05:50.087Z,14.90
2023-01-30T08:08:18.522Z,16.10
2023-01-30T08:10:49.520Z,19.50
2023-01-30T08:13:18.139Z,19.20
2023-01-30T08:15:46.521Z,17.10
2023-01-30T08:18:15.033Z,16.10
2023-01-30T08:20:43.526Z,17.30
2023-01-30T08:23:12.179Z,13.70
2023-01-30T08:25:40.998Z,14.10
2023-01-30T08:28:09.486Z,19.30
2023-01-30T08:30:38.071Z,14.40
2023-01-30T08:33:06.651Z,19.50
2023-01-30T08:35:38.162Z,27.60
2023-01-30T08:38:09.126Z,13.80
2023-01-30T08:40:38.534Z,14.30
2023-01-30T08:43:10.599Z,11.90
2023-01-30T08:45:39.091Z,13.50
2023-01-30T08:48:08.324Z,16.80
2023-01-30T08:50:39.120Z,12.40
2023-01-30T08:53:10.304Z,33.50
2023-01-30T08:55:38.894Z,25.20
2023-01-30T08:58:07.627Z,127.50
2023-01-30T09:00:44.546Z,49.00
2023-01-30T09:03:17.741Z,44.40
2023-01-30T09:05:46.627Z,37.20
2023-01-30T09:08:15.719Z,43.50
2023-01-30T09:10:44.166Z,49.70
2023-01-30T09:13:12.573Z,72.10
2023-01-30T09:15:45.678Z,67.90
2023-01-30T09:18:14.151Z,26.50
2023-01-30T09:20:47.801Z,18.20
2023-01-30T09:23:16.476Z,19.10
2023-01-30T09:25:46.403Z,36.80
2023-01-30T09:28:14.787Z,92.00
2023-01-30T09:30:43.493Z,80.30
2023-01-30T09:33:12.003Z,24.80
2023-01-30T09:35:40.364Z,22.10
2023-01-30T09:38:08.697Z,19.10
2023-01-30T09:40:41.685Z,17.20
2023-01-30T09:43:28.673Z,21.70
2023-01-30T09:46:19.179Z,20.90
2023-01-30T09:48:50.499Z,16.20
2023-01-30T09:51:28.372Z,15.90
2023-01-30T09:53:56.823Z,12.30
2023-01-30T09:56:25.609Z,11.60
2023-01-30T09:59:03.873Z,12.20
2023-01-30T10:01:48.907Z,12.20
2023-01-30T10:04:59.042Z,13.00
2023-01-30T10:08:01.386Z,11.30
2023-01-30T10:11:09.905Z,12.00
2023-01-30T10:13:44.004Z,12.50
2023-01-30T10:16:24.819Z,11.40
2023-01-30T10:19:13.362Z,10.50
2023-01-30T10:22:22.947Z,10.50
2023-01-30T10:24:57.676Z,11.50
2023-01-30T10:27:30.090Z,11.60
2023-01-30T10:30:06.046Z,11.30
2023-01-30T10:32:46.525Z,11.70
2023-01-30T10:35:26.894Z,12.90
2023-01-30T10:38:04.014Z,29.10
2023-01-30T10:40:57.915Z,177.00
2023-01-30T10:43:36.381Z,64.50
2023-01-30T10:46:13.454Z,29.20
2023-01-30T10:48:47.087Z,57.60
2023-01-30T10:51:25.196Z,58.10
2023-01-30T10:54:01.184Z,27.50
2023-01-30T10:56:46.514Z,42.80
2023-01-30T10:59:48.577Z,31.00
2023-01-30T11:02:25.245Z,56.00
2023-01-30T11:05:01.849Z,70.90
2023-01-30T11:07:32.315Z,35.40
2023-01-30T11:10:01.522Z,53.30
2023-01-30T11:12:30.013Z,64.40
2023-01-30T11:15:01.067Z,124.90
2023-01-30T11:17:48.095Z,51.60
2023-01-30T11:20:22.212Z,27.50
2023-01-30T11:23:04.229Z,16.70
2023-01-30T11:25:59.288Z,23.20
2023-01-30T11:28:42.894Z,29.90
2023-01-30T11:31:35.092Z,25.20
2023-01-30T11:34:17.519Z,15.10
2023-01-30T11:36:47.602Z,24.90
2023-01-30T11:39:17.651Z,15.00
2023-01-30T11:41:58.735Z,13.70
2023-01-30T11:44:35.891Z,14.50
2023-01-30T11:47:10.135Z,13.30
2023-01-30T11:50:01.920Z,27.00
2023-01-30T11:52:43.573Z,21.80
2023-01-30T11:55:17.526Z,15.00
2023-01-30T11:57:51.302Z,13.10
2023-01-30T12:00:23.934Z,14.40
2023-01-30T12:02:54.900Z,23.00
2023-01-30T12:05:33.109Z,16.30
2023-01-30T12:08:24.779Z,15.00
2023-01-30T12:11:02.470Z,25.60
2023-01-30T12:13:39.337Z,26.40
2023-01-30T12:16:26.853Z,20.70
2023-01-30T12:19:15.104Z,25.80
2023-01-30T12:21:56.267Z,12.60
2023-01-30T12:24:24.686Z,11.90
2023-01-30T12:27:10.169Z,19.20
2023-01-30T12:32:17.301Z,32.20
2023-01-30T12:34:46.561Z,16.60
2023-01-30T12:37:36.681Z,14.30
2023-01-30T12:40:20.512Z,20.70
2023-01-30T12:43:18.380Z,17.80
2023-01-30T12:46:05.797Z,14.80
2023-01-30T12:49:10.166Z,12.10
2023-01-30T12:52:21.508Z,10.90
2023-01-30T12:54:59.181Z,11.60
2023-01-30T12:57:47.569Z,11.30
2023-01-30T13:00:41.823Z,11.80
2023-01-30T13:03:42.044Z,10.80
2023-01-30T13:06:16.423Z,10.80
2023-01-30T13:08:53.963Z,11.40
2023-01-30T13:11:40.257Z,14.40
2023-01-30T13:14:24.066Z,14.90
2023-01-30T13:16:57.817Z,16.10
2023-01-30T13:19:45.949Z,19.50
2023-01-30T13:22:22.904Z,13.50
2023-01-30T13:25:06.549Z,13.50
2023-01-30T13:27:39.651Z,14.40
2023-01-30T13:30:14.907Z,13.50
2023-01-30T13:32:50.870Z,14.60
2023-01-30T13:35:34.727Z,14.40
2023-01-30T13:38:05.292Z,13.60
2023-01-30T13:40:43.348Z,13.70
2023-01-30T13:43:19.964Z,13.50
2023-01-30T13:45:50.633Z,14.60
2023-01-30T13:48:43.554Z,13.60
2023-01-30T13:51:31.004Z,14.10
2023-01-30T13:54:40.441Z,14.20
2023-01-30T13:57:25.358Z,15.40
2023-01-30T13:59:59.745Z,15.40
2023-01-30T14:02:28.319Z,13.50
2023-01-30T14:04:58.564Z,13.80
2023-01-30T14:07:45.217Z,14.30
2023-01-30T14:10:20.754Z,14.20
2023-01-30T14:12:52.592Z,16.30
2023-01-30T14:15:26.278Z,15.60
2023-01-30T14:17:57.905Z,14.50
2023-01-30T14:20:40.862Z,13.20
2023-01-30T14:23:31.720Z,15.80
2023-01-30T14:26:00.925Z,15.60
2023-01-30T14:28:29.360Z,15.70
2023-01-30T14:30:59.911Z,17.90
2023-01-30T14:33:32.977Z,14.00
2023-01-30T14:36:01.365Z,12.80
2023-01-30T14:38:34.878Z,11.30
2023-01-30T14:41:03.297Z,11.30
2023-01-30T14:43:46.458Z,12.40
2023-01-30T14:46:17.907Z,11.30
2023-01-30T14:49:00.978Z,10.80
2023-01-30T14:51:36.103Z,12.90
2023-01-30T14:56:54.473Z,11.80
2023-01-30T14:59:25.396Z,12.10
2023-01-30T15:02:01.681Z,12.00
2023-01-30T15:04:36.056Z,12.00
2023-01-30T15:07:11.023Z,11.30
2023-01-30T15:09:44.853Z,11.10
2023-01-30T15:12:25.553Z,11.30
2023-01-30T15:15:02.513Z,12.80
2023-01-30T15:17:36.941Z,13.00
2023-01-30T15:20:32.460Z,12.00
2023-01-30T15:23:40.174Z,12.80
2023-01-30T15:26:18.564Z,12.30
2023-01-30T15:28:53.347Z,12.80
2023-01-30T15:31:23.744Z,12.60
2023-01-30T15:33:56.926Z,16.10
2023-01-30T15:36:29.270Z,12.10
2023-01-30T15:39:25.910Z,13.50
2023-01-30T15:42:05.923Z,11.40
2023-01-30T15:44:37.407Z,11.60
2023-01-30T15:47:52.268Z,11.90
2023-01-30T15:50:21.323Z,11.60
2023-01-30T15:52:53.297Z,11.50
2023-01-30T15:55:29.113Z,10.50
2023-01-30T15:58:03.406Z,11.60
2023-01-30T16:00:39.665Z,13.40
2023-01-30T16:03:13.830Z,13.70
2023-01-30T16:05:50.594Z,20.50
2023-01-30T16:08:23.822Z,15.20
2023-01-30T16:10:52.254Z,17.60
2023-01-30T16:13:23.482Z,10.80
2023-01-30T16:16:01.023Z,11.00
2023-01-30T16:18:47.044Z,21.60
2023-01-30T16:21:28.672Z,18.30
2023-01-30T16:24:06.895Z,18.70
2023-01-30T16:26:36.662Z,16.70
2023-01-30T16:29:07.958Z,18.30
2023-01-30T16:31:41.489Z,13.80
2023-01-30T16:34:31.036Z,11.10
2023-01-30T16:37:05.427Z,11.10
2023-01-30T16:39:36.348Z,11.30
2023-01-30T16:42:28.298Z,9.70
2023-01-30T16:45:41.690Z,10.20
2023-01-30T16:48:19.820Z,10.70
2023-01-30T16:51:20.144Z,10.40
2023-01-30T16:54:02.735Z,11.90
2023-01-30T16:56:34.531Z,10.00
2023-01-30T16:59:03.582Z,10.00
2023-01-30T17:01:38.469Z,8.70
2023-01-30T17:04:16.316Z,10.10
2023-01-30T17:06:53.271Z,9.00
2023-01-30T17:09:46.267Z,10.90
2023-01-30T17:12:26.879Z,10.30
2023-01-30T17:15:11.922Z,11.40
2023-01-30T17:17:41.055Z,12.20
2023-01-30T17:20:14.145Z,15.40
2023-01-30T17:22:46.121Z,13.80
2023-01-30T17:25:22.163Z,11.80
2023-01-30T17:27:50.726Z,11.80
2023-01-30T17:30:19.932Z,11.70
2023-01-30T17:32:50.756Z,14.90
2023-01-30T17:35:19.411Z,13.30
2023-01-30T17:37:59.688Z,13.30
2023-01-30T17:40:36.643Z,14.70
2023-01-30T17:43:05.562Z,14.80
2023-01-30T17:45:36.453Z,15.50
2023-01-30T17:48:05.594Z,14.70
2023-01-30T17:50:34.298Z,15.50
2023-01-30T17:53:03.248Z,14.40
2023-01-30T17:55:34.406Z,14.10
2023-01-30T17:58:03.050Z,12.90
2023-01-30T18:00:31.492Z,12.90
2023-01-30T18:03:00.172Z,16.10
2023-01-30T18:05:28.706Z,14.10
2023-01-30T18:07:57.206Z,13.70
2023-01-30T18:10:26.057Z,12.40
2023-01-30T18:12:54.544Z,12.40
2023-01-30T18:15:23.032Z,12.40
2023-01-30T18:17:55.210Z,12.10
2023-01-30T18:20:23.739Z,13.70
2023-01-30T18:22:52.053Z,13.80
2023-01-30T18:25:20.965Z,14.70
2023-01-30T18:27:50.055Z,15.00
2023-01-30T18:30:19.083Z,15.90
2023-01-30T18:32:53.833Z,14.60
2023-01-30T18:35:23.386Z,15.20
2023-01-30T18:37:51.983Z,14.40
2023-01-30T18:40:21.452Z,13.50
2023-01-30T18:42:50.393Z,12.40
2023-01-30T18:45:19.024Z,14.60
2023-01-30T18:47:47.567Z,12.30
2023-01-30T18:50:20.176Z,13.90
2023-01-30T18:52:50.905Z,12.80
2023-01-30T18:55:21.072Z,13.20
2023-01-30T18:57:49.681Z,12.70
2023-01-30T19:00:21.796Z,13.00
2023-01-30T19:02:52.374Z,11.90
2023-01-30T19:05:20.888Z,12.40
2023-01-30T19:07:49.413Z,11.80
2023-01-30T19:10:18.443Z,13.50
2023-01-30T19:13:06.031Z,12.30
2023-01-30T19:15:36.748Z,12.00
2023-01-30T19:18:07.715Z,12.90
2023-01-30T19:20:39.207Z,12.00
2023-01-30T19:23:07.611Z,11.60
2023-01-30T19:25:36.917Z,10.20
2023-01-30T19:28:06.627Z,9.90
2023-01-30T19:30:38.328Z,10.20
2023-01-30T19:33:06.840Z,10.90
2023-01-30T19:35:35.420Z,11.10
2023-01-30T19:38:04.840Z,10.30
2023-01-30T19:40:33.479Z,10.20
2023-01-30T19:43:10.430Z,9.70
2023-01-30T19:45:43.751Z,10.50
2023-01-30T19:48:13.363Z,10.10
2023-01-30T19:50:42.118Z,9.40
2023-01-30T19:53:10.449Z,10.60
2023-01-30T19:55:38.975Z,8.50
2023-01-30T19:58:07.618Z,8.50
2023-01-30T20:00:36.200Z,8.90
2023-01-30T20:03:04.583Z,9.10
2023-01-30T20:05:33.037Z,9.10
2023-01-30T20:08:01.523Z,10.70
2023-01-30T20:10:29.949Z,11.50
2023-01-30T20:12:58.383Z,11.30
2023-01-30T20:15:26.803Z,9.20
2023-01-30T20:17:55.293Z,8.70
2023-01-30T20:20:23.926Z,9.50
2023-01-30T20:22:52.367Z,8.30
2023-01-30T20:25:20.678Z,12.00
2023-01-30T20:27:49.095Z,8.20
2023-01-30T20:30:20.178Z,8.70
2023-01-30T20:32:48.676Z,10.00
2023-01-30T20:35:17.793Z,10.30
2023-01-30T20:37:46.263Z,9.20
2023-01-30T20:40:17.193Z,9.50
2023-01-30T20:42:45.905Z,8.90
2023-01-30T20:45:14.371Z,10.00
2023-01-30T20:47:42.800Z,8.40
2023-01-30T20:50:13.779Z,8.60
2023-01-30T20:52:43.211Z,8.30
2023-01-30T20:55:11.662Z,7.50
2023-01-30T20:57:42.984Z,10.00
2023-01-30T21:00:15.687Z,9.30
2023-01-30T21:02:48.482Z,8.80
2023-01-30T21:05:19.555Z,8.80
2023-01-30T21:07:48.400Z,8.60
2023-01-30T21:10:17.078Z,8.70
2023-01-30T21:12:45.469Z,9.70
2023-01-30T21:15:13.861Z,10.20
2023-01-30T21:17:42.258Z,9.20
2023-01-30T21:20:11.062Z,9.50
2023-01-30T21:22:39.439Z,9.80
2023-01-30T21:25:08.242Z,9.30
2023-01-30T21:27:38.708Z,7.90
2023-01-30T21:30:09.084Z,8.90
2023-01-30T21:32:37.901Z,8.40
2023-01-30T21:35:06.596Z,9.20
2023-01-30T21:37:54.361Z,7.80
2023-01-30T21:40:41.294Z,8.00
2023-01-30T21:43:15.614Z,8.60
2023-01-30T21:45:44.760Z,8.50
2023-01-30T21:48:13.267Z,6.90
2023-01-30T21:50:45.662Z,7.40
2023-01-30T21:53:20.207Z,7.00
2023-01-30T21:55:58.589Z,7.40
2023-01-30T21:58:31.368Z,6.60
2023-01-30T22:01:06.803Z,6.60
2023-01-30T22:03:36.398Z,6.90
2023-01-30T22:06:08.549Z,6.70
2023-01-30T22:08:39.906Z,6.80
2023-01-30T22:11:08.379Z,6.30
2023-01-30T22:13:38.265Z,6.30
2023-01-30T22:16:13.449Z,6.90
2023-01-30T22:18:44.324Z,5.70
2023-01-30T22:21:15.076Z,6.00
2023-01-30T22:23:45.582Z,6.50
2023-01-30T22:26:16.393Z,6.80
2023-01-30T22:28:45.287Z,6.90
2023-01-30T22:31:17.542Z,6.50
2023-01-30T22:33:49.658Z,6.30
2023-01-30T22:36:18.522Z,6.60
2023-01-30T22:38:49.444Z,6.40
2023-01-30T22:41:20.738Z,7.00
2023-01-30T22:43:55.641Z,6.00
2023-01-30T22:46:31.548Z,6.70
2023-01-30T22:49:02.047Z,6.60
2023-01-30T22:51:35.065Z,7.40
2023-01-30T22:54:07.145Z,6.70
2023-01-30T22:56:40.676Z,7.00
2023-01-30T22:59:10.666Z,6.20
2023-01-30T23:01:42.187Z,6.00
2023-01-30T23:04:11.928Z,6.70
2023-01-30T23:06:41.235Z,6.00
2023-01-30T23:09:27.017Z,6.20
2023-01-30T23:12:16.544Z,6.00
2023-01-30T23:14:45.183Z,6.50
2023-01-30T23:17:32.252Z,6.70
2023-01-30T23:20:00.678Z,7.00
2023-01-30T23:22:29.196Z,7.60
2023-01-30T23:24:57.525Z,7.40
2023-01-30T23:27:25.901Z,7.40
2023-01-30T23:29:54.339Z,7.20
2023-01-30T23:32:23.831Z,8.10
2023-01-30T23:34:52.215Z,7.40
2023-01-30T23:37:40.593Z,8.10
2023-01-30T23:40:09.646Z,7.40
2023-01-30T23:42:38.137Z,7.80
2023-01-30T23:45:07.040Z,7.50
2023-01-30T23:47:35.392Z,7.50
2023-01-30T23:50:04.060Z,7.30
2023-01-30T23:52:32.585Z,7.50
2023-01-30T23:55:00.841Z,7.30
2023-01-30T23:57:29.346Z,6.90
2023-01-30T23:59:57.677Z,8.10
